The Official Home Page Of The Professional Rodeo Cowboys Association PRCA RAM WORLD STANDINGS
ProRodeoTv.Com



Official Gear Of The PRCA

PRCA Stock Statistics

SEARCH BY:
Stock Rodeo Contestant Stock Contractor

Tyler Ferguson

EVENT:
Unofficial results reflect placement at time of Web posting and can change.

SEASON BREAKDOWN

Season Attempts Qual Rides Re-rides Ride %
2018 38 33 0 86.84 %
2015 15 6 0 40.00 %
Totals 53 39 0 0.00 %

RODEO DETAIL

Date Location Rodeo SC Brand Ride Comments Stock Score Contestant Score
7/30/2018 Hill City, KS Jayhawker Roundup Rodeo RH 30 75.00 19.00 / 19.00 18.00 / 19.00
7/28/2018 Steamboat Springs, CO Steamboat Springs Pro Rodeo Series HV 309 77.00 19.00 / 18.00 20.00 / 20.00
7/27/2018 Burlington, CO Kit Carson County Fair & Rodeo RM MD1 72.00 19.00 / 19.00 14.00 / 20.00
7/26/2018 Cheyenne, WY Cheyenne Frontier Days KR 819 72.00 17.00 / 18.50 17.00 / 19.50
7/25/2018 Cheyenne, WY Cheyenne Frontier Days TH L3 55.00 16.00 / 16.00 12.00 / 11.00
7/21/2018 Steamboat Springs, CO Steamboat Springs Pro Rodeo Series PK 204 75.00 18.00 / 18.00 19.00 / 20.00
7/15/2018 Laramie, WY Laramie Jubilee Days SM 688 50.00 17.00 / 18.00 4.00 / 11.00
7/13/2018 Steamboat Springs, CO Steamboat Springs Pro Rodeo Series PK 100 72.00 17.00 / 17.00 19.00 / 19.00
7/12/2018 Gunnison, CO Cattlemen s Days SH 981 77.00 19.00 / 19.00 21.00 / 18.00
7/7/2018 Steamboat Springs, CO Steamboat Springs Pro Rodeo Series PK 224 76.50 18.00 / 17.50 20.00 / 21.00
7/4/2018 Steamboat Springs, CO Steamboat Springs Pro Rodeo Series RM VX7 69.00 19.00 / 17.00 17.00 / 16.00
7/2/2018 Greeley, CO Greeley Stampede BU 303 70.50 22.50 / 22.50 10.50 / 15.00
6/30/2018 Steamboat Springs, CO Steamboat Springs Pro Rodeo Series RM 110 69.00 20.00 / 18.00 17.00 / 14.00
6/22/2018 Steamboat Springs, CO Steamboat Springs Pro Rodeo Series RM V12 64.00 18.00 / 17.00 16.00 / 13.00
6/21/2018 Alamosa, CO Alamosa Round-Up HR SO 64.00 17.00 / 16.00 14.00 / 17.00
6/20/2018 Santa Fe, NM Rodeo de Sante Fe HV 745 66.00 18.00 / 18.00 12.00 / 18.00
6/17/2018 Evergreen, CO Evergreen Rodeo CB V25 0.00 0.00 / 0.00 0.00 / 0.00
6/16/2018 Steamboat Springs, CO Steamboat Springs Pro Rodeo Series RM 38 75.00 20.00 / 20.00 16.00 / 19.00
6/16/2018 Grover, CO Earl Anderson Memorial Rodeo SM 465 68.00 16.00 / 20.00 17.00 / 15.00
6/7/2018 Cortez, CO Ute Mountain Roundup Rodeo HR 4P1 68.00 19.00 / 18.00 15.00 / 16.00
6/2/2018 Elizabeth, CO Elizabeth Stampede Rodeo SM 780 66.00 19.00 / 18.00 17.00 / 12.00
6/1/2018 Moab, UT Canyonlands PRCA Rodeo BT 6+5 70.00 18.00 / 19.00 16.00 / 17.00
4/13/2018 Oakdale, CA Oakdale Saddle Club Rodeo C5 37 62.50 18.00 / 19.00 14.00 / 11.50
4/12/2018 Logandale, NV Clark County Fair & Rodeo SA 231 74.00 21.00 / 20.00 17.00 / 16.00
3/30/2018 Lubbock, TX ABC Pro Rodeo BU 41 52.00 16.00 / 17.00 5.00 / 14.00
Page of 2
Per Page
 
 
 
PRCA National Sponsors
MGM Grand Polaris Ranger American Quarter Horse Association Cinch Jeans
Copyright © 2018 Professional Rodeo Cowboys Association. All rights reserved. No portion of ProRodeo.com may be duplicated, redistributed or manipulated in any form. By accessing any information beyond this page, you agree to abide by the Terms of Use.
PRCA Wrangler National Finals Rodeo Wrangler ProRodeo Tour Finale Presented by Justin Boots Xtreme Bulls RAM National Circuit Finals Rodeo ProRodeo Gear ProRodeo Tour